Time;durP1;ratioP1;P1;durP2;ratioP2;P2;SDS_P1;SDS_P2;PMS_P1;PMS_P2;Temp;Humidity;BMP_temperature;BMP_pressure;BME280_temperature;BME280_humidity;BME280_pressure;Samples;Min_cycle;Max_cycle;Signal;HPM_P1;HPM_P2
2023/12/15 00:00:21;;;;;;;0.00;0.00;;;-1.50;100.00;;;;;;6205568;23;20018;-63
2023/12/15 00:02:48;;;;;;;0.00;0.00;;;-1.40;100.00;;;;;;6205316;23;20021;-63
2023/12/15 00:05:15;;;;;;;0.00;0.00;;;-1.40;100.00;;;;;;6204592;23;20027;-63
2023/12/15 00:07:42;;;;;;;0.00;0.00;;;-1.30;100.00;;;;;;6203480;23;20032;-63
2023/12/15 00:10:09;;;;;;;0.00;0.00;;;-1.30;100.00;;;;;;6202647;23;20037;-63
2023/12/15 00:12:36;;;;;;;0.00;0.00;;;-1.20;100.00;;;;;;6178201;23;20526;-63
2023/12/15 00:15:03;;;;;;;0.00;0.00;;;-1.10;100.00;;;;;;6178335;23;20396;-63
2023/12/15 00:17:30;;;;;;;0.00;0.00;;;-1.00;100.00;;;;;;6205805;23;20020;-63
2023/12/15 00:19:57;;;;;;;0.00;0.00;;;-0.90;100.00;;;;;;6204810;23;20476;-63
2023/12/15 00:22:24;;;;;;;0.00;0.00;;;-0.80;100.00;;;;;;6204795;23;20020;-63
2023/12/15 00:24:51;;;;;;;0.00;0.00;;;-0.70;100.00;;;;;;6205492;23;20028;-63
2023/12/15 00:27:18;;;;;;;0.00;0.00;;;-0.60;100.00;;;;;;6205069;23;20024;-63
2023/12/15 00:29:45;;;;;;;0.00;0.00;;;-0.50;100.00;;;;;;6204932;23;20024;-63
2023/12/15 00:32:12;;;;;;;0.00;0.00;;;-0.30;100.00;;;;;;6204640;23;20373;-63
2023/12/15 00:34:39;;;;;;;0.00;0.00;;;-0.20;100.00;;;;;;6205056;23;20076;-63
2023/12/15 00:37:06;;;;;;;0.00;0.00;;;-0.20;100.00;;;;;;6205234;23;20086;-63
2023/12/15 00:39:38;;;;;;;0.00;0.00;;;-0.10;100.00;;;;;;6177689;23;20060;-64
2023/12/15 00:42:05;;;;;;;0.00;0.00;;;-0.10;100.00;;;;;;6205169;23;20024;-63
2023/12/15 00:44:33;;;;;;;0.00;0.00;;;0.00;100.00;;;;;;6204020;23;20025;-64
2023/12/15 00:47:00;;;;;;;0.00;0.00;;;0.00;100.00;;;;;;6205575;23;20024;-63
2023/12/15 00:49:27;;;;;;;0.00;0.00;;;0.00;100.00;;;;;;6205213;23;20031;-64
2023/12/15 00:51:55;;;;;;;0.00;0.00;;;0.00;100.00;;;;;;6204095;23;20033;-64
2023/12/15 00:54:22;;;;;;;0.00;0.00;;;0.00;100.00;;;;;;6204637;23;20540;-64
2023/12/15 00:56:49;;;;;;;0.00;0.00;;;0.10;100.00;;;;;;6205139;23;20079;-64
2023/12/15 00:59:16;;;;;;;0.00;0.00;;;0.10;100.00;;;;;;6179011;23;20067;-63
2023/12/15 01:01:44;;;;;;;0.00;0.00;;;0.20;100.00;;;;;;6204787;23;20021;-64
2023/12/15 01:04:11;;;;;;;0.00;0.00;;;0.20;100.00;;;;;;6205453;23;20021;-64
2023/12/15 01:06:38;;;;;;;0.00;0.00;;;0.20;100.00;;;;;;6177304;23;20094;-64
2023/12/15 01:09:05;;;;;;;0.00;0.00;;;0.20;100.00;;;;;;6176976;23;20048;-64
2023/12/15 01:11:32;;;;;;;0.00;0.00;;;0.20;100.00;;;;;;6194258;23;20505;-64
2023/12/15 01:13:59;;;;;;;0.00;0.00;;;0.30;100.00;;;;;;6203687;23;20099;-64
2023/12/15 01:16:27;;;;;;;0.00;0.00;;;0.30;100.00;;;;;;6204290;23;20024;-64
2023/12/15 01:18:53;;;;;;;0.00;0.00;;;0.30;100.00;;;;;;6204031;23;20020;-63
2023/12/15 01:21:21;;;;;;;0.00;0.00;;;0.30;100.00;;;;;;6203992;23;20024;-64
2023/12/15 01:23:47;;;;;;;0.00;0.00;;;0.30;100.00;;;;;;6204113;23;20411;-64
2023/12/15 01:26:15;;;;;;;0.00;0.00;;;0.30;100.00;;;;;;6204515;23;20074;-64
2023/12/15 01:28:42;;;;;;;0.00;0.00;;;0.30;100.00;;;;;;6205468;23;20099;-64
2023/12/15 01:31:09;;;;;;;0.00;0.00;;;0.30;100.00;;;;;;6205273;23;20029;-64
2023/12/15 01:33:36;;;;;;;0.00;0.00;;;0.30;100.00;;;;;;6203804;23;20020;-64
2023/12/15 01:36:03;;;;;;;0.00;0.00;;;0.30;100.00;;;;;;6204432;23;20028;-64
2023/12/15 01:38:30;;;;;;;0.00;0.00;;;0.20;100.00;;;;;;6203576;23;20060;-64
2023/12/15 01:40:57;;;;;;;0.05;0.05;;;0.20;100.00;;;;;;6204433;23;20056;-64
2023/12/15 01:43:23;;;;;;;0.10;0.10;;;0.20;100.00;;;;;;6205665;23;20095;-64
2023/12/15 01:45:50;;;;;;;0.00;0.00;;;0.10;100.00;;;;;;6206538;23;20095;-64
2023/12/15 01:48:31;;;;;;;0.00;0.00;;;0.20;100.00;;;;;;6204849;23;20381;-64
2023/12/15 01:50:58;;;;;;;0.00;0.00;;;0.20;100.00;;;;;;6204858;23;20056;-64
2023/12/15 01:53:25;;;;;;;0.00;0.00;;;0.20;100.00;;;;;;6206751;23;20115;-64
2023/12/15 01:55:52;;;;;;;0.00;0.00;;;0.20;100.00;;;;;;6203762;23;20488;-64
2023/12/15 01:58:19;;;;;;;0.00;0.00;;;0.20;100.00;;;;;;6203800;23;20086;-64
2023/12/15 02:00:47;;;;;;;0.00;0.00;;;0.20;100.00;;;;;;6204102;23;20024;-64
2023/12/15 02:03:14;;;;;;;0.00;0.00;;;0.20;100.00;;;;;;6205469;23;20027;-64
2023/12/15 02:05:41;;;;;;;0.00;0.00;;;0.20;100.00;;;;;;6205422;23;20032;-64
2023/12/15 02:08:08;;;;;;;0.00;0.00;;;0.30;100.00;;;;;;6205986;23;20028;-64
2023/12/15 02:10:38;;;;;;;0.00;0.00;;;0.20;100.00;;;;;;6205148;23;20465;-64
2023/12/15 02:13:06;;;;;;;0.00;0.00;;;0.20;100.00;;;;;;6205924;23;20028;-64
2023/12/15 02:15:33;;;;;;;0.00;0.00;;;0.20;100.00;;;;;;6179593;23;20794;-64
2023/12/15 02:18:00;;;;;;;0.00;0.00;;;0.20;100.00;;;;;;6204713;23;20090;-64
2023/12/15 02:20:28;;;;;;;0.00;0.00;;;0.20;100.00;;;;;;6178253;23;20095;-64
2023/12/15 02:22:57;;;;;;;0.00;0.00;;;0.20;100.00;;;;;;6179808;23;20473;-64
2023/12/15 02:25:24;;;;;;;0.00;0.00;;;0.20;100.00;;;;;;6205930;23;20507;-64
2023/12/15 02:27:51;;;;;;;0.22;0.22;;;0.20;100.00;;;;;;6178993;23;20138;-64
2023/12/15 02:30:18;;;;;;;0.00;0.00;;;0.20;100.00;;;;;;6206377;23;20032;-64
2023/12/15 02:32:45;;;;;;;0.00;0.00;;;0.20;100.00;;;;;;6180568;23;20021;-64
2023/12/15 02:35:14;;;;;;;0.00;0.00;;;0.10;100.00;;;;;;6180889;23;20112;-64
2023/12/15 02:37:41;;;;;;;0.00;0.00;;;0.10;100.00;;;;;;6206877;23;20461;-64
2023/12/15 02:40:08;;;;;;;0.00;0.00;;;0.20;100.00;;;;;;6206979;23;20024;-64
2023/12/15 02:42:35;;;;;;;0.00;0.00;;;0.20;100.00;;;;;;6206524;23;20016;-64
2023/12/15 02:45:02;;;;;;;0.00;0.00;;;0.10;100.00;;;;;;6205761;23;20028;-64
2023/12/15 02:47:29;;;;;;;0.00;0.00;;;0.10;100.00;;;;;;6206759;23;20063;-64
2023/12/15 02:49:56;;;;;;;0.00;0.00;;;0.10;100.00;;;;;;6205372;23;20025;-64
2023/12/15 02:52:23;;;;;;;0.00;0.00;;;0.10;100.00;;;;;;6205530;23;20702;-64
2023/12/15 02:54:50;;;;;;;0.00;0.00;;;0.10;100.00;;;;;;6205136;23;20074;-64
2023/12/15 02:57:17;;;;;;;0.00;0.00;;;0.10;100.00;;;;;;6206510;23;20107;-64
2023/12/15 02:59:43;;;;;;;0.00;0.00;;;0.10;100.00;;;;;;6205473;23;20087;-64
2023/12/15 03:02:10;;;;;;;0.00;0.00;;;0.10;100.00;;;;;;6179898;23;20090;-64
2023/12/15 03:04:37;;;;;;;0.00;0.00;;;0.10;100.00;;;;;;6205333;23;20754;-64
2023/12/15 03:07:04;;;;;;;0.00;0.00;;;0.10;100.00;;;;;;6205669;23;20021;-64
2023/12/15 03:09:31;;;;;;;0.00;0.00;;;0.00;100.00;;;;;;6205507;23;20516;-64
2023/12/15 03:11:58;;;;;;;0.00;0.00;;;0.00;100.00;;;;;;6205674;23;20029;-64
2023/12/15 03:14:24;;;;;;;0.00;0.00;;;0.00;100.00;;;;;;6177749;23;20453;-64
2023/12/15 03:16:51;;;;;;;0.00;0.00;;;0.00;100.00;;;;;;6178266;23;20025;-64
2023/12/15 03:19:19;;;;;;;0.00;0.00;;;0.00;100.00;;;;;;6178049;23;20024;-64
2023/12/15 03:21:45;;;;;;;0.00;0.00;;;0.00;100.00;;;;;;6204704;23;20023;-64
2023/12/15 03:24:12;;;;;;;0.00;0.00;;;-0.10;100.00;;;;;;6178000;23;20028;-64
2023/12/15 03:26:39;;;;;;;0.00;0.00;;;-0.10;100.00;;;;;;6205230;23;20075;-64
2023/12/15 03:29:06;;;;;;;0.00;0.00;;;-0.20;100.00;;;;;;6204665;23;20102;-64
2023/12/15 03:31:33;;;;;;;0.00;0.00;;;-0.20;100.00;;;;;;6204032;23;20024;-64
2023/12/15 03:34:00;;;;;;;0.00;0.00;;;-0.20;100.00;;;;;;6204077;23;20028;-64
2023/12/15 03:36:27;;;;;;;0.00;0.00;;;-0.20;100.00;;;;;;6204646;23;20024;-64
2023/12/15 03:38:54;;;;;;;0.00;0.00;;;-0.20;100.00;;;;;;6203967;23;20024;-63
2023/12/15 03:41:21;;;;;;;0.00;0.00;;;-0.20;100.00;;;;;;6204792;23;20473;-64
2023/12/15 03:43:48;;;;;;;0.00;0.00;;;-0.20;100.00;;;;;;6178860;23;20028;-64
2023/12/15 03:46:14;;;;;;;0.00;0.00;;;-0.20;100.00;;;;;;6178694;23;20020;-64
2023/12/15 03:48:41;;;;;;;0.00;0.00;;;-0.20;100.00;;;;;;6204828;23;20032;-63
2023/12/15 03:51:08;;;;;;;0.00;0.00;;;-0.20;100.00;;;;;;6179246;23;20133;-64
2023/12/15 03:53:35;;;;;;;0.00;0.00;;;-0.20;100.00;;;;;;6205705;23;20090;-63
2023/12/15 03:56:02;;;;;;;0.00;0.00;;;-0.20;100.00;;;;;;6203385;23;20024;-64
2023/12/15 03:58:29;;;;;;;0.00;0.00;;;-0.20;100.00;;;;;;6205528;23;20023;-64
2023/12/15 04:00:56;;;;;;;0.00;0.00;;;-0.20;100.00;;;;;;6204133;23;20028;-64
2023/12/15 04:03:23;;;;;;;0.00;0.00;;;-0.10;100.00;;;;;;6204283;23;20020;-64
2023/12/15 04:05:50;;;;;;;0.00;0.00;;;-0.10;100.00;;;;;;6203903;23;20024;-64
2023/12/15 04:08:17;;;;;;;0.00;0.00;;;-0.10;100.00;;;;;;6204774;23;20021;-64
2023/12/15 04:10:44;;;;;;;0.00;0.00;;;-0.10;100.00;;;;;;6184962;23;20051;-64
2023/12/15 04:13:11;;;;;;;0.00;0.00;;;0.00;100.00;;;;;;6204898;23;20789;-64
2023/12/15 04:15:38;;;;;;;0.00;0.00;;;0.00;100.00;;;;;;6205097;23;20028;-64
2023/12/15 04:18:07;;;;;;;0.00;0.00;;;0.00;100.00;;;;;;6203763;23;20647;-64
2023/12/15 04:20:34;;;;;;;0.00;0.00;;;0.00;100.00;;;;;;6204889;23;20024;-64
2023/12/15 04:23:01;;;;;;;0.00;0.00;;;0.00;100.00;;;;;;6205710;23;20163;-64
2023/12/15 04:25:29;;;;;;;0.00;0.00;;;0.00;100.00;;;;;;6204434;23;20721;-64
2023/12/15 04:27:56;;;;;;;0.00;0.00;;;0.00;100.00;;;;;;6204169;23;20021;-64
2023/12/15 04:30:23;;;;;;;0.00;0.00;;;0.00;100.00;;;;;;6205129;23;20052;-64
2023/12/15 04:32:49;;;;;;;0.00;0.00;;;0.00;100.00;;;;;;6204949;23;20024;-64
2023/12/15 04:35:17;;;;;;;0.00;0.00;;;0.00;100.00;;;;;;6204359;23;20107;-64
2023/12/15 04:37:46;;;;;;;0.00;0.00;;;0.00;100.00;;;;;;6203886;23;20132;-64
2023/12/15 04:40:14;;;;;;;0.00;0.00;;;0.00;100.00;;;;;;6204682;23;20388;-64
2023/12/15 04:42:41;;;;;;;0.00;0.00;;;0.00;100.00;;;;;;6203578;23;20460;-63
2023/12/15 04:45:08;;;;;;;0.00;0.00;;;0.00;100.00;;;;;;6204644;23;20074;-64
2023/12/15 04:47:35;;;;;;;0.00;0.00;;;0.00;100.00;;;;;;6205215;23;20437;-63
2023/12/15 04:50:03;;;;;;;0.00;0.00;;;0.00;100.00;;;;;;6203474;23;20461;-64
2023/12/15 04:52:30;;;;;;;0.00;0.00;;;0.10;100.00;;;;;;6203384;23;20026;-63
2023/12/15 04:54:57;;;;;;;0.00;0.00;;;0.00;100.00;;;;;;6203875;23;20086;-63
2023/12/15 04:57:24;;;;;;;0.00;0.00;;;0.10;100.00;;;;;;6203724;23;20504;-64
2023/12/15 04:59:51;;;;;;;0.30;0.30;;;0.10;100.00;;;;;;6202593;23;20374;-63
2023/12/15 05:02:18;;;;;;;0.00;0.00;;;0.10;100.00;;;;;;6204298;23;20618;-64
2023/12/15 05:04:45;;;;;;;0.00;0.00;;;0.10;100.00;;;;;;6204430;23;20092;-64
2023/12/15 05:07:12;;;;;;;0.00;0.00;;;0.10;100.00;;;;;;6204596;23;20091;-64
2023/12/15 05:09:39;;;;;;;0.00;0.00;;;0.20;100.00;;;;;;6204642;23;20029;-64
2023/12/15 05:12:08;;;;;;;0.00;0.00;;;0.20;100.00;;;;;;6205045;23;20047;-64
2023/12/15 05:14:36;;;;;;;0.00;0.00;;;0.20;100.00;;;;;;6205562;23;20024;-64
2023/12/15 05:17:03;;;;;;;0.00;0.00;;;0.30;100.00;;;;;;6205062;23;20036;-63
2023/12/15 05:19:30;;;;;;;0.00;0.00;;;0.30;100.00;;;;;;6206611;23;20063;-63
2023/12/15 05:21:58;;;;;;;0.00;0.00;;;0.30;100.00;;;;;;6207441;23;20676;-63
2023/12/15 05:24:25;;;;;;;0.00;0.00;;;0.30;100.00;;;;;;6206362;23;20024;-63
2023/12/15 05:26:52;;;;;;;0.00;0.00;;;0.40;100.00;;;;;;6206387;23;20091;-63
2023/12/15 05:29:18;;;;;;;0.00;0.00;;;0.40;100.00;;;;;;6207288;23;20091;-63
2023/12/15 05:31:45;;;;;;;0.00;0.00;;;0.40;100.00;;;;;;6206600;23;20028;-63
2023/12/15 05:34:12;;;;;;;0.00;0.00;;;0.50;100.00;;;;;;6207199;23;20025;-63
2023/12/15 05:36:40;;;;;;;0.00;0.00;;;0.50;100.00;;;;;;6206993;23;20016;-63
2023/12/15 05:39:07;;;;;;;0.00;0.00;;;0.50;100.00;;;;;;6206936;23;20025;-63
2023/12/15 05:41:40;;;;;;;0.00;0.00;;;0.50;100.00;;;;;;6180796;23;20059;-63
2023/12/15 05:44:10;;;;;;;0.00;0.00;;;0.60;100.00;;;;;;6207525;23;20016;-63
2023/12/15 05:46:41;;;;;;;0.00;0.00;;;0.60;100.00;;;;;;6206940;23;20024;-64
2023/12/15 05:49:09;;;;;;;0.00;0.00;;;0.60;100.00;;;;;;6179259;23;20024;-63
2023/12/15 05:51:38;;;;;;;0.00;0.00;;;0.60;100.00;;;;;;6181105;23;20414;-63
2023/12/15 05:54:05;;;;;;;0.00;0.00;;;0.60;100.00;;;;;;6206463;23;20488;-74
2023/12/15 05:56:32;;;;;;;0.00;0.00;;;0.60;100.00;;;;;;6206612;23;20059;-63
2023/12/15 05:58:59;;;;;;;0.00;0.00;;;0.60;100.00;;;;;;6180505;23;20029;-64
2023/12/15 06:01:26;;;;;;;0.00;0.00;;;0.70;100.00;;;;;;6206079;23;20021;-64
2023/12/15 06:03:53;;;;;;;0.00;0.00;;;0.70;100.00;;;;;;6207581;23;20029;-63
2023/12/15 06:06:20;;;;;;;0.00;0.00;;;0.70;100.00;;;;;;6205827;23;20592;-64
2023/12/15 06:08:47;;;;;;;0.00;0.00;;;0.70;100.00;;;;;;6206465;23;20028;-64
2023/12/15 06:11:14;;;;;;;0.00;0.00;;;0.70;100.00;;;;;;6205554;23;20020;-64
2023/12/15 06:13:41;;;;;;;0.00;0.00;;;0.80;100.00;;;;;;6206446;23;20043;-63
2023/12/15 06:16:17;;;;;;;0.00;0.00;;;0.80;100.00;;;;;;6206177;23;20099;-63
2023/12/15 06:18:43;;;;;;;;;;;0.80;100.00;;;;;;6206396;23;20032;-63
2023/12/15 06:21:23;;;;;;;0.00;0.00;;;0.90;100.00;;;;;;6203895;23;19958;-64
2023/12/15 06:23:51;;;;;;;0.00;0.00;;;0.90;100.00;;;;;;6178845;23;20021;-62
2023/12/15 06:26:25;;;;;;;0.00;0.00;;;0.90;100.00;;;;;;6205473;23;20740;-62
2023/12/15 06:28:55;;;;;;;0.00;0.00;;;0.90;100.00;;;;;;6178920;23;20028;-62
2023/12/15 06:31:25;;;;;;;0.00;0.00;;;1.00;100.00;;;;;;6205463;23;20028;-62
2023/12/15 06:33:53;;;;;;;0.00;0.00;;;1.00;100.00;;;;;;6180202;23;20078;-62
2023/12/15 06:36:20;;;;;;;0.00;0.00;;;1.00;100.00;;;;;;6204452;23;20055;-62
2023/12/15 06:38:51;;;;;;;0.00;0.00;;;1.00;100.00;;;;;;6206105;23;20063;-62
2023/12/15 06:41:17;;;;;;;0.00;0.00;;;1.00;100.00;;;;;;6206109;23;20020;-62
2023/12/15 06:43:45;;;;;;;0.00;0.00;;;1.00;100.00;;;;;;6205782;23;20123;-62
2023/12/15 06:46:12;;;;;;;0.00;0.00;;;1.00;100.00;;;;;;6178929;23;20029;-62
2023/12/15 06:48:39;;;;;;;0.00;0.00;;;1.00;100.00;;;;;;6205651;23;20456;-62
2023/12/15 06:51:07;;;;;;;0.00;0.00;;;1.00;100.00;;;;;;6177966;23;20098;-62
2023/12/15 06:53:34;;;;;;;0.00;0.00;;;0.90;100.00;;;;;;6204327;23;20028;-62
2023/12/15 06:56:01;;;;;;;0.88;0.88;;;0.90;100.00;;;;;;6178044;23;20118;-62
2023/12/15 06:58:29;;;;;;;0.00;0.00;;;0.90;100.00;;;;;;6203998;23;20086;-62
2023/12/15 07:00:55;;;;;;;0.00;0.00;;;1.00;100.00;;;;;;6174575;23;20059;-62
2023/12/15 07:03:23;;;;;;;0.00;0.00;;;1.00;100.00;;;;;;6202556;23;20028;-62
2023/12/15 07:05:50;;;;;;;0.00;0.00;;;1.00;100.00;;;;;;6205005;23;20481;-62
2023/12/15 07:08:17;;;;;;;0.00;0.00;;;1.00;100.00;;;;;;6203045;23;20098;-63
2023/12/15 07:10:44;;;;;;;0.00;0.00;;;1.10;100.00;;;;;;6203695;23;20025;-62
2023/12/15 07:13:11;;;;;;;0.00;0.00;;;1.10;100.00;;;;;;6203793;23;20087;-62
2023/12/15 07:15:37;;;;;;;0.00;0.00;;;1.10;100.00;;;;;;6177414;23;20098;-62
2023/12/15 07:18:04;;;;;;;0.00;0.00;;;1.20;100.00;;;;;;6204627;23;20074;-62
2023/12/15 07:20:32;;;;;;;0.00;0.00;;;1.20;100.00;;;;;;6203646;23;20393;-62
2023/12/15 07:22:58;;;;;;;0.57;0.57;;;1.20;100.00;;;;;;6203491;23;20357;-62
2023/12/15 07:25:26;;;;;;;0.00;0.00;;;1.30;100.00;;;;;;6203911;23;20109;-62
2023/12/15 07:27:53;;;;;;;0.00;0.00;;;1.30;100.00;;;;;;6205299;23;20037;-62
2023/12/15 07:30:21;;;;;;;0.00;0.00;;;1.30;100.00;;;;;;6203706;23;20091;-62
2023/12/15 07:32:48;;;;;;;0.00;0.00;;;1.40;100.00;;;;;;6203839;23;20445;-62
2023/12/15 07:35:16;;;;;;;0.00;0.00;;;1.40;100.00;;;;;;6177633;23;20123;-62
2023/12/15 07:37:57;;;;;;;0.10;0.10;;;1.40;100.00;;;;;;6203930;23;20029;-62
2023/12/15 07:40:24;;;;;;;1.15;1.15;;;1.50;100.00;;;;;;6178411;23;20028;-62
2023/12/15 07:42:51;;;;;;;0.00;0.00;;;1.50;100.00;;;;;;6205137;23;20025;-62
2023/12/15 07:45:18;;;;;;;0.00;0.00;;;1.50;100.00;;;;;;6205100;23;20021;-62
2023/12/15 07:47:45;;;;;;;0.00;0.00;;;1.50;100.00;;;;;;6205924;23;20020;-62
2023/12/15 07:50:13;;;;;;;0.00;0.00;;;1.60;100.00;;;;;;6205912;23;20025;-62
2023/12/15 07:52:40;;;;;;;0.00;0.00;;;1.60;100.00;;;;;;6204498;23;20024;-62
2023/12/15 07:55:08;;;;;;;0.00;0.00;;;1.60;100.00;;;;;;6204452;23;20032;-63
2023/12/15 07:57:35;;;;;;;0.00;0.00;;;1.70;100.00;;;;;;6205304;23;20024;-62
2023/12/15 08:00:05;;;;;;;0.00;0.00;;;1.70;100.00;;;;;;6178432;23;20743;-62
2023/12/15 08:02:33;;;;;;;0.00;0.00;;;1.80;100.00;;;;;;6203357;23;20024;-62
2023/12/15 08:05:00;;;;;;;0.00;0.00;;;1.80;100.00;;;;;;6203212;23;20016;-62
2023/12/15 08:07:27;;;;;;;0.00;0.00;;;1.80;100.00;;;;;;6202857;23;20024;-62
2023/12/15 08:09:53;;;;;;;0.00;0.00;;;1.80;100.00;;;;;;6177318;23;20028;-62
2023/12/15 08:12:20;;;;;;;0.00;0.00;;;1.90;100.00;;;;;;6177109;23;20067;-62
2023/12/15 08:14:47;;;;;;;0.00;0.00;;;1.90;100.00;;;;;;6176917;23;20020;-62
2023/12/15 08:17:14;;;;;;;0.00;0.00;;;1.90;100.00;;;;;;6203606;23;20021;-62
2023/12/15 08:19:41;;;;;;;0.00;0.00;;;1.90;100.00;;;;;;6203122;23;20021;-62
2023/12/15 08:22:08;;;;;;;0.00;0.00;;;1.90;100.00;;;;;;6204012;23;20032;-62
2023/12/15 08:24:36;;;;;;;0.00;0.00;;;2.00;100.00;;;;;;6202291;23;20481;-63
2023/12/15 08:27:04;;;;;;;0.00;0.00;;;2.00;100.00;;;;;;6203761;23;20095;-63
2023/12/15 08:29:31;;;;;;;0.00;0.00;;;2.00;100.00;;;;;;6204095;23;20079;-62
2023/12/15 08:31:57;;;;;;;0.00;0.00;;;2.00;100.00;;;;;;6178421;23;20024;-63
2023/12/15 08:34:26;;;;;;;0.00;0.00;;;2.10;100.00;;;;;;6177673;23;20031;-63
2023/12/15 08:36:53;;;;;;;0.00;0.00;;;2.10;100.00;;;;;;6203917;23;20039;-63
2023/12/15 08:39:20;;;;;;;0.00;0.00;;;2.10;100.00;;;;;;6177777;23;20032;-62
2023/12/15 08:41:47;;;;;;;0.00;0.00;;;2.10;100.00;;;;;;6178012;23;20060;-65
2023/12/15 08:44:14;;;;;;;0.00;0.00;;;2.10;100.00;;;;;;6203210;23;20024;-64
2023/12/15 08:46:55;;;;;;;0.00;0.00;;;2.20;100.00;;;;;;6205480;23;20032;-64
2023/12/15 08:49:23;;;;;;;0.00;0.00;;;2.20;100.00;;;;;;6177494;23;20125;-65
2023/12/15 08:51:50;;;;;;;0.00;0.00;;;2.20;100.00;;;;;;6204276;23;20031;-64
2023/12/15 08:54:17;;;;;;;0.00;0.00;;;2.20;100.00;;;;;;6205443;23;20793;-64
2023/12/15 08:56:44;;;;;;;0.00;0.00;;;2.20;100.00;;;;;;6205377;23;20024;-62
2023/12/15 08:59:11;;;;;;;0.00;0.00;;;2.30;100.00;;;;;;6205972;23;20091;-62
2023/12/15 09:01:38;;;;;;;0.00;0.00;;;2.30;100.00;;;;;;6205293;23;20074;-65
2023/12/15 09:04:05;;;;;;;0.00;0.00;;;2.30;100.00;;;;;;6204817;23;20025;-65
2023/12/15 09:06:32;;;;;;;0.00;0.00;;;2.30;100.00;;;;;;6205716;23;20031;-64
2023/12/15 09:09:08;;;;;;;0.00;0.00;;;2.30;100.00;;;;;;6206215;23;20025;-65
2023/12/15 09:11:35;;;;;;;0.00;0.00;;;2.30;100.00;;;;;;6203570;23;20028;-65
2023/12/15 09:14:02;;;;;;;0.00;0.00;;;2.40;100.00;;;;;;6202751;23;20095;-65
2023/12/15 09:16:29;;;;;;;0.00;0.00;;;2.40;100.00;;;;;;6201007;23;20029;-65
2023/12/15 09:18:56;;;;;;;0.00;0.00;;;2.40;100.00;;;;;;6200890;23;20078;-65
2023/12/15 09:21:23;;;;;;;0.00;0.00;;;2.50;100.00;;;;;;6201045;23;20024;-64
2023/12/15 09:23:53;;;;;;;0.00;0.00;;;2.50;100.00;;;;;;6201087;23;20388;-64
2023/12/15 09:26:20;;;;;;;0.00;0.00;;;2.50;100.00;;;;;;6201171;23;20021;-64
2023/12/15 09:28:47;;;;;;;0.00;0.00;;;2.50;100.00;;;;;;6202329;23;20021;-64
2023/12/15 09:31:14;;;;;;;0.00;0.00;;;2.60;100.00;;;;;;6200894;23;20029;-65
2023/12/15 09:33:41;;;;;;;0.00;0.00;;;2.60;100.00;;;;;;6173804;23;20024;-63
2023/12/15 09:36:08;;;;;;;0.00;0.00;;;2.60;100.00;;;;;;6175920;23;20095;-64
2023/12/15 09:38:35;;;;;;;0.00;0.00;;;2.60;100.00;;;;;;6202873;23;20456;-64
2023/12/15 09:41:02;;;;;;;0.00;0.00;;;2.70;100.00;;;;;;6201715;23;20021;-64
2023/12/15 09:43:29;;;;;;;0.00;0.00;;;2.70;100.00;;;;;;6175089;23;20145;-64
2023/12/15 09:45:58;;;;;;;0.00;0.00;;;2.70;100.00;;;;;;6177673;23;20082;-64
2023/12/15 09:48:28;;;;;;;0.00;0.00;;;2.80;100.00;;;;;;6178206;23;20523;-64
2023/12/15 09:50:58;;;;;;;0.00;0.00;;;2.80;100.00;;;;;;6205103;23;20507;-64
2023/12/15 09:53:25;;;;;;;0.00;0.00;;;2.80;100.00;;;;;;6206218;23;20334;-64
2023/12/15 09:55:53;;;;;;;0.00;0.00;;;2.90;100.00;;;;;;6202294;23;20834;-65
2023/12/15 09:58:20;;;;;;;0.00;0.00;;;3.00;100.00;;;;;;6203086;23;20024;-64
2023/12/15 10:00:47;;;;;;;0.00;0.00;;;3.00;100.00;;;;;;6202204;23;20130;-65
2023/12/15 10:03:14;;;;;;;0.00;0.00;;;3.00;100.00;;;;;;6175509;23;20131;-65
2023/12/15 10:05:42;;;;;;;1.65;0.68;;;3.00;100.00;;;;;;6200486;23;20100;-65
2023/12/15 10:08:09;;;;;;;0.00;0.00;;;3.10;100.00;;;;;;6175338;23;20024;-65
2023/12/15 10:10:36;;;;;;;0.00;0.00;;;3.10;100.00;;;;;;6205007;23;20083;-65
2023/12/15 10:13:03;;;;;;;0.00;0.00;;;3.20;100.00;;;;;;6177618;23;20024;-65
2023/12/15 10:15:30;;;;;;;0.00;0.00;;;3.20;100.00;;;;;;6177235;23;20017;-65
2023/12/15 10:17:58;;;;;;;0.00;0.00;;;3.20;100.00;;;;;;6151792;23;20032;-65
2023/12/15 10:20:25;;;;;;;0.15;0.15;;;3.20;100.00;;;;;;6200240;23;20121;-65
2023/12/15 10:23:06;;;;;;;0.00;0.00;;;3.20;100.00;;;;;;6201064;23;20032;-65
2023/12/15 10:25:33;;;;;;;0.00;0.00;;;3.30;100.00;;;;;;6200306;23;20127;-65
2023/12/15 10:28:02;;;;;;;0.00;0.00;;;3.30;100.00;;;;;;6201228;23;20086;-65
2023/12/15 10:30:29;;;;;;;0.00;0.00;;;3.40;100.00;;;;;;6205435;23;20021;-66
2023/12/15 10:32:57;;;;;;;0.00;0.00;;;3.40;100.00;;;;;;6205923;23;20378;-65
2023/12/15 10:35:28;;;;;;;0.00;0.00;;;3.40;100.00;;;;;;6177097;23;20040;-65
2023/12/15 10:37:55;;;;;;;0.00;0.00;;;3.50;100.00;;;;;;6204308;23;20020;-70
2023/12/15 10:40:24;;;;;;;0.00;0.00;;;3.50;100.00;;;;;;6207431;23;20025;-70
2023/12/15 10:42:51;;;;;;;0.00;0.00;;;3.60;100.00;;;;;;6205562;23;20020;-71
2023/12/15 10:45:20;;;;;;;0.00;0.00;;;3.60;100.00;;;;;;6204519;23;20143;-71
2023/12/15 10:47:50;;;;;;;0.00;0.00;;;3.60;100.00;;;;;;6205305;23;20418;-71
2023/12/15 10:50:19;;;;;;;0.00;0.00;;;3.60;100.00;;;;;;6177851;23;20032;-70
2023/12/15 10:52:48;;;;;;;0.00;0.00;;;3.60;100.00;;;;;;6204614;23;20024;-72
2023/12/15 10:55:15;;;;;;;0.22;0.22;;;3.60;100.00;;;;;;6204128;23;20033;-71
2023/12/15 10:57:42;;;;;;;0.00;0.00;;;3.70;100.00;;;;;;6204822;23;20028;-71
2023/12/15 11:00:10;;;;;;;0.00;0.00;;;3.70;100.00;;;;;;6204427;23;20025;-71
2023/12/15 11:02:38;;;;;;;0.00;0.00;;;3.70;100.00;;;;;;6178659;23;20358;-75
2023/12/15 11:05:09;;;;;;;0.00;0.00;;;3.80;100.00;;;;;;6203723;23;20025;-71
2023/12/15 11:07:37;;;;;;;0.00;0.00;;;3.80;100.00;;;;;;6204492;23;20100;-72
2023/12/15 11:10:04;;;;;;;0.00;0.00;;;3.80;100.00;;;;;;6176687;23;20114;-72
2023/12/15 11:12:37;;;;;;;0.00;0.00;;;3.80;100.00;;;;;;6177364;23;20028;-72
2023/12/15 11:15:08;;;;;;;2.40;1.65;;;3.80;100.00;;;;;;6202511;23;20404;-73
2023/12/15 11:17:53;;;;;;;0.00;0.00;;;3.80;100.00;;;;;;6176638;23;20024;-72
2023/12/15 11:20:20;;;;;;;0.00;0.00;;;3.90;100.00;;;;;;6204649;23;20040;-72
2023/12/15 11:22:58;;;;;;;0.00;0.00;;;3.90;100.00;;;;;;6202402;23;20079;-72
2023/12/15 11:25:29;;;;;;;0.00;0.00;;;3.90;100.00;;;;;;6203319;23;20025;-72
2023/12/15 11:27:59;;;;;;;0.00;0.00;;;3.90;100.00;;;;;;6203743;23;20028;-71
2023/12/15 11:30:34;;;;;;;0.00;0.00;;;4.00;100.00;;;;;;6204412;23;20071;-71
2023/12/15 11:33:27;;;;;;;0.00;0.00;;;4.00;100.00;;;;;;6202678;23;20024;-71
2023/12/15 11:36:05;;;;;;;0.00;0.00;;;4.10;100.00;;;;;;6203046;23;20523;-71
2023/12/15 11:38:33;;;;;;;0.00;0.00;;;4.20;100.00;;;;;;6176514;23;20029;-72
2023/12/15 11:41:01;;;;;;;0.00;0.00;;;4.20;100.00;;;;;;6201659;23;20762;-71
2023/12/15 11:43:33;;;;;;;0.00;0.00;;;4.30;100.00;;;;;;6204955;23;20099;-71
2023/12/15 11:46:00;;;;;;;0.03;0.03;;;4.30;100.00;;;;;;6205113;23;20024;-71
2023/12/15 11:48:27;;;;;;;0.00;0.00;;;4.30;100.00;;;;;;6205660;23;20079;-71
2023/12/15 11:50:55;;;;;;;0.00;0.00;;;4.30;100.00;;;;;;6206180;23;20020;-71
2023/12/15 11:53:22;;;;;;;0.00;0.00;;;4.40;100.00;;;;;;6206189;23;20024;-71
2023/12/15 11:55:50;;;;;;;0.00;0.00;;;4.40;100.00;;;;;;6179071;23;20055;-71
2023/12/15 11:58:22;;;;;;;0.00;0.00;;;4.50;100.00;;;;;;6205898;23;20020;-71
2023/12/15 12:00:49;;;;;;;0.00;0.00;;;4.50;100.00;;;;;;6179058;23;20027;-71
2023/12/15 12:03:16;;;;;;;0.00;0.00;;;4.50;100.00;;;;;;6205352;23;20027;-71
2023/12/15 12:05:48;;;;;;;0.00;0.00;;;4.50;100.00;;;;;;6204201;23;20024;-71
2023/12/15 12:08:15;;;;;;;0.00;0.00;;;4.50;100.00;;;;;;6205670;23;20029;-71
2023/12/15 12:10:42;;;;;;;0.00;0.00;;;4.50;100.00;;;;;;6204300;23;20024;-71
2023/12/15 12:13:11;;;;;;;0.00;0.00;;;4.50;100.00;;;;;;6204566;23;20786;-71
2023/12/15 12:15:54;;;;;;;0.00;0.00;;;4.60;100.00;;;;;;6204641;23;20458;-71
2023/12/15 12:18:25;;;;;;;0.00;0.00;;;4.60;100.00;;;;;;6205526;23;20086;-71
2023/12/15 12:20:54;;;;;;;0.00;0.00;;;4.60;100.00;;;;;;6204475;23;20056;-71
2023/12/15 12:23:27;;;;;;;0.00;0.00;;;4.60;100.00;;;;;;6205312;23;20115;-71
2023/12/15 12:26:09;;;;;;;0.00;0.00;;;4.60;100.00;;;;;;6204345;23;20024;-71
2023/12/15 12:28:41;;;;;;;0.00;0.00;;;4.60;100.00;;;;;;6204121;23;20024;-71
2023/12/15 12:31:09;;;;;;;0.00;0.00;;;4.70;100.00;;;;;;6205572;23;20677;-71
2023/12/15 12:33:36;;;;;;;0.00;0.00;;;4.70;100.00;;;;;;6204776;23;20557;-71
2023/12/15 12:36:04;;;;;;;0.00;0.00;;;4.70;100.00;;;;;;6202529;23;20020;-73
2023/12/15 12:38:31;;;;;;;0.00;0.00;;;4.80;100.00;;;;;;6176651;23;20613;-74
2023/12/15 12:41:02;;;;;;;0.00;0.00;;;4.70;100.00;;;;;;6203823;23;20028;-73
2023/12/15 12:43:29;;;;;;;0.00;0.00;;;4.80;100.00;;;;;;6176571;23;20083;-75
2023/12/15 12:45:57;;;;;;;0.00;0.00;;;4.80;100.00;;;;;;6202301;23;20028;-73
2023/12/15 12:48:24;;;;;;;0.00;0.00;;;4.80;100.00;;;;;;6176569;23;20033;-73